Time;durP1;ratioP1;P1;durP2;ratioP2;P2;SDS_P1;SDS_P2;PMS_P1;PMS_P2;Temp;Humidity;BMP_temperature;BMP_pressure;BME280_temperature;BME280_humidity;BME280_pressure;Samples;Min_cycle;Max_cycle;Signal;HPM_P1;HPM_P2
2023/04/21 00:01:11;;;;;;;1.65;1.55;;;;;;;12.88;88.01;100550.09;5033691;28;20050;-79
2023/04/21 00:03:40;;;;;;;1.60;1.38;;;;;;;12.92;89.01;100547.56;5033880;28;20050;-79
2023/04/21 00:06:08;;;;;;;2.00;1.42;;;;;;;12.85;90.75;100538.88;5032491;28;20495;-79
2023/04/21 00:08:39;;;;;;;1.90;1.70;;;;;;;12.85;89.92;100550.66;5032599;28;20049;-79
2023/04/21 00:11:07;;;;;;;2.22;1.60;;;;;;;12.77;90.30;100540.34;5033621;28;20484;-79
2023/04/21 00:13:35;;;;;;;2.33;1.60;;;;;;;12.72;90.33;100546.72;5033916;28;20484;-79
2023/04/21 00:16:03;;;;;;;1.70;1.50;;;;;;;12.63;91.79;100546.53;5033478;28;20052;-79
2023/04/21 00:18:31;;;;;;;1.50;1.40;;;;;;;12.66;92.15;100541.59;5033626;28;20164;-79
2023/04/21 00:20:59;;;;;;;1.55;1.45;;;;;;;12.60;91.08;100543.56;5033361;28;20057;-79
2023/04/21 00:23:27;;;;;;;1.77;1.33;;;;;;;12.68;91.76;100528.38;5033407;28;20492;-79
2023/04/21 00:25:55;;;;;;;4.03;2.00;;;;;;;12.65;91.96;100534.47;5033385;28;20050;-79
2023/04/21 00:28:23;;;;;;;2.78;2.20;;;;;;;12.56;93.52;100537.88;5033171;28;20049;-79
2023/04/21 00:30:53;;;;;;;1.67;1.50;;;;;;;12.62;92.33;100527.66;5033241;28;20049;-79
2023/04/21 00:33:21;;;;;;;3.20;1.60;;;;;;;12.69;91.64;100524.53;5033384;28;20392;-79
2023/04/21 00:35:49;;;;;;;2.33;2.03;;;;;;;12.69;91.50;100530.84;5015709;28;20400;-79
2023/04/21 00:38:17;;;;;;;1.83;1.63;;;;;;;12.69;92.18;100524.53;5033398;28;20057;-79
2023/04/21 00:40:44;;;;;;;2.67;1.63;;;;;;;12.67;92.81;100529.50;5028416;28;20053;-79
2023/04/21 00:43:12;;;;;;;1.92;1.65;;;;;;;12.60;93.33;100516.13;5011637;28;20057;-79
2023/04/21 00:45:40;;;;;;;2.10;1.75;;;;;;;12.63;92.10;100510.84;5013351;28;20056;-79
2023/04/21 00:48:09;;;;;;;2.60;1.88;;;;;;;12.66;91.32;100511.41;5011278;28;20050;-79
2023/04/21 00:50:38;;;;;;;2.30;1.90;;;;;;;12.73;91.28;100503.59;5011171;28;20050;-79
2023/04/21 00:53:07;;;;;;;2.65;1.90;;;;;;;12.73;91.19;100514.59;5013181;28;20507;-79
2023/04/21 00:55:36;;;;;;;2.38;2.08;;;;;;;12.74;91.21;100513.47;5013005;28;20057;-79
2023/04/21 00:58:04;;;;;;;2.42;1.80;;;;;;;12.94;90.04;100508.81;5012795;28;20511;-79
2023/04/21 01:00:32;;;;;;;3.22;1.92;;;;;;;12.94;89.86;100508.81;4995544;28;20098;-79
2023/04/21 01:03:00;;;;;;;1.85;1.60;;;;;;;12.83;90.18;100500.72;5013045;28;20042;-79
2023/04/21 01:05:30;;;;;;;2.53;1.83;;;;;;;13.01;89.66;100514.75;5012782;28;20675;-79
2023/04/21 01:07:59;;;;;;;3.05;2.42;;;;;;;13.24;88.42;100517.69;5012983;28;20057;-79
2023/04/21 01:10:28;;;;;;;1.90;1.80;;;;;;;13.25;88.60;100508.31;5011717;28;20046;-78
2023/04/21 01:12:58;;;;;;;2.70;2.40;;;;;;;13.39;88.29;100513.88;5012974;28;20046;-79
2023/04/21 01:15:29;;;;;;;2.35;2.10;;;;;;;13.37;87.31;100519.66;5012489;28;20055;-79
2023/04/21 01:17:58;;;;;;;3.63;2.05;;;;;;;13.52;87.33;100524.13;5012743;28;20488;-79
2023/04/21 01:20:28;;;;;;;2.83;2.13;;;;;;;13.47;86.34;100515.13;5012541;28;20050;-79
2023/04/21 01:22:57;;;;;;;2.78;2.00;;;;;;;13.53;86.04;100523.00;5012692;28;20400;-79
2023/04/21 01:25:27;;;;;;;2.75;2.08;;;;;;;13.42;85.75;100524.25;5010925;28;20046;-79
2023/04/21 01:27:55;;;;;;;5.13;2.13;;;;;;;13.62;86.39;100525.88;5011752;28;20057;-79
2023/04/21 01:30:23;;;;;;;2.58;2.17;;;;;;;13.74;84.69;100513.56;4994822;28;20421;-79
2023/04/21 01:32:51;;;;;;;3.88;2.58;;;;;;;13.69;84.86;100526.28;5012171;28;20048;-79
2023/04/21 01:35:19;;;;;;;2.53;2.28;;;;;;;13.71;85.56;100515.00;5012571;28;20046;-79
2023/04/21 01:37:47;;;;;;;2.13;1.88;;;;;;;13.60;85.52;100508.88;5012541;28;20508;-79
2023/04/21 01:40:15;;;;;;;2.58;2.13;;;;;;;13.69;85.84;100520.00;5010973;28;20053;-79
2023/04/21 01:42:43;;;;;;;2.60;2.40;;;;;;;13.53;85.58;100509.25;5011147;28;20066;-79
2023/04/21 01:45:11;;;;;;;2.53;1.90;;;;;;;13.61;86.32;100517.91;5012111;28;20046;-79
2023/04/21 01:47:39;;;;;;;2.72;2.00;;;;;;;13.52;86.29;100524.13;5012395;28;20042;-79
2023/04/21 01:50:08;;;;;;;2.35;2.08;;;;;;;13.63;86.89;100508.25;5027174;28;20054;-79
2023/04/21 01:52:36;;;;;;;3.45;2.33;;;;;;;13.62;85.66;100512.13;5011111;28;20057;-79
2023/04/21 01:55:04;;;;;;;3.40;2.58;;;;;;;13.47;86.13;100510.47;5011710;28;20049;-80
2023/04/21 01:57:33;;;;;;;2.85;2.63;;;;;;;13.51;86.52;100508.75;5011688;28;20061;-80
2023/04/21 02:00:02;;;;;;;3.58;2.55;;;;;;;13.48;87.42;100516.78;5027203;28;20053;-80
2023/04/21 02:02:41;;;;;;;2.30;2.10;;;;;;;13.44;86.88;100511.84;5012216;28;20057;-80
2023/04/21 02:05:12;;;;;;;2.53;2.25;;;;;;;13.39;86.72;100506.44;5010579;28;20056;-80
2023/04/21 02:07:41;;;;;;;4.60;2.90;;;;;;;13.57;85.94;100496.53;5012033;28;20054;-80
2023/04/21 02:10:09;;;;;;;2.80;2.30;;;;;;;13.44;87.08;100495.34;5011128;28;20041;-79
2023/04/21 02:12:37;;;;;;;4.45;3.25;;;;;;;13.46;86.40;100502.47;5012066;28;20053;-79
2023/04/21 02:15:06;;;;;;;3.17;2.42;;;;;;;13.48;86.13;100489.28;5010449;28;20473;-80
2023/04/21 02:17:35;;;;;;;3.90;3.15;;;;;;;13.52;86.12;100496.63;5011891;28;20058;-80
2023/04/21 02:20:03;;;;;;;3.05;2.38;;;;;;;13.50;86.14;100503.53;5012066;28;20049;-80
2023/04/21 02:22:31;;;;;;;3.67;2.78;;;;;;;13.55;85.89;100495.22;5011624;28;20056;-80
2023/04/21 02:25:04;;;;;;;3.53;2.67;;;;;;;13.53;85.97;100497.44;4994011;28;20053;-80
2023/04/21 02:27:31;;;;;;;3.40;2.70;;;;;;;13.42;84.48;100503.09;5010635;28;20408;-80
2023/04/21 02:29:59;;;;;;;3.22;2.63;;;;;;;13.60;85.21;100500.63;5014735;28;20049;-81
2023/04/21 02:32:27;;;;;;;4.78;2.35;;;;;;;13.70;84.00;100491.38;5014608;28;20481;-80
2023/04/21 02:34:55;;;;;;;4.90;2.63;;;;;;;13.81;82.59;100502.97;5015584;28;20046;-80
2023/04/21 02:37:23;;;;;;;3.88;2.65;;;;;;;13.78;82.52;100498.91;5030847;28;20042;-80
2023/04/21 02:39:53;;;;;;;3.28;2.30;;;;;;;13.86;82.82;100500.13;5030542;28;20046;-80
2023/04/21 02:42:21;;;;;;;3.05;2.63;;;;;;;13.86;82.42;100499.31;5015642;28;20050;-80
2023/04/21 02:44:48;;;;;;;2.53;2.30;;;;;;;14.09;82.63;100508.50;5030404;28;20140;-80
2023/04/21 02:47:16;;;;;;;3.55;2.67;;;;;;;14.01;82.40;100511.97;5015465;28;20054;-80
2023/04/21 02:49:44;;;;;;;2.88;2.53;;;;;;;13.82;83.30;100507.34;5015369;28;20084;-80
2023/04/21 02:52:12;;;;;;;2.35;2.08;;;;;;;13.79;83.10;100510.72;5015474;28;20057;-80
2023/04/21 02:54:40;;;;;;;3.67;2.88;;;;;;;14.09;83.25;100519.53;5015212;28;20378;-80
2023/04/21 02:57:08;;;;;;;3.75;2.63;;;;;;;13.83;82.52;100512.56;5014155;28;20376;-80
2023/04/21 02:59:36;;;;;;;2.83;2.40;;;;;;;13.89;82.98;100517.97;5014151;28;20049;-80
2023/04/21 03:02:04;;;;;;;6.18;2.45;;;;;;;14.01;82.82;100529.28;5013630;28;20041;-80
2023/04/21 03:04:32;;;;;;;3.30;2.40;;;;;;;14.10;82.59;100532.16;5015078;28;20048;-80
2023/04/21 03:07:01;;;;;;;4.35;2.72;;;;;;;14.21;80.95;100527.25;5015232;28;20050;-80
2023/04/21 03:09:29;;;;;;;3.58;2.55;;;;;;;14.04;81.64;100533.38;5013980;28;20053;-80
2023/04/21 03:11:57;;;;;;;3.75;2.95;;;;;;;14.16;82.07;100530.94;5013951;28;20042;-80
2023/04/21 03:14:24;;;;;;;5.38;3.20;;;;;;;14.09;81.60;100536.81;5013711;28;20045;-80
2023/04/21 03:16:52;;;;;;;4.40;3.15;;;;;;;14.20;81.22;100531.97;5015074;28;20049;-80
2023/04/21 03:19:21;;;;;;;3.97;3.35;;;;;;;14.36;81.41;100548.16;5013806;28;20050;-80
2023/04/21 03:21:49;;;;;;;3.85;3.17;;;;;;;14.20;81.70;100531.97;5014744;28;20507;-80
2023/04/21 03:24:18;;;;;;;3.33;2.95;;;;;;;14.15;79.77;100550.50;5014615;28;20045;-80
2023/04/21 03:26:46;;;;;;;4.03;2.88;;;;;;;14.25;81.29;100547.53;5013698;28;20057;-80
2023/04/21 03:29:14;;;;;;;3.53;2.58;;;;;;;14.10;80.57;100544.00;5015032;28;20050;-80
2023/04/21 03:31:42;;;;;;;4.45;2.90;;;;;;;14.11;81.74;100536.53;5014646;28;20073;-80
2023/04/21 03:34:10;;;;;;;3.65;2.80;;;;;;;14.18;81.13;100538.88;5013357;28;20034;-80
2023/04/21 03:36:38;;;;;;;4.25;2.70;;;;;;;14.15;80.91;100539.47;5013286;28;20053;-80
2023/04/21 03:39:06;;;;;;;4.25;3.05;;;;;;;13.93;82.95;100544.56;5012846;28;20057;-80
2023/04/21 03:41:47;;;;;;;4.07;2.80;;;;;;;13.80;84.33;100537.13;5011983;28;20408;-80
2023/04/21 03:44:14;;;;;;;3.40;2.95;;;;;;;13.91;84.71;100544.06;4996500;28;20045;-80
2023/04/21 03:46:42;;;;;;;3.38;2.85;;;;;;;13.92;84.78;100537.44;5014504;28;20493;-80
2023/04/21 03:49:10;;;;;;;4.28;2.60;;;;;;;13.70;85.29;100540.88;4997026;28;20041;-80
2023/04/21 03:51:38;;;;;;;3.00;2.58;;;;;;;13.67;84.73;100541.47;5014608;28;20485;-80
2023/04/21 03:54:07;;;;;;;3.30;3.00;;;;;;;13.66;86.27;100540.66;5014154;28;20034;-80
2023/04/21 03:56:35;;;;;;;4.22;2.97;;;;;;;13.56;85.64;100535.31;5014449;28;20050;-80
2023/04/21 03:59:03;;;;;;;4.00;3.05;;;;;;;13.57;84.99;100534.22;5014310;28;20050;-80
2023/04/21 04:01:32;;;;;;;3.72;3.03;;;;;;;13.55;85.75;100536.44;5013965;28;20046;-80
2023/04/21 04:04:00;;;;;;;3.75;3.13;;;;;;;13.46;86.14;100535.47;5013832;28;20049;-80
2023/04/21 04:06:28;;;;;;;4.63;3.30;;;;;;;13.46;85.92;100533.56;5014189;28;20515;-80
2023/04/21 04:08:56;;;;;;;3.95;3.05;;;;;;;13.48;86.39;100533.28;5014205;28;20057;-80
2023/04/21 04:11:24;;;;;;;4.00;3.17;;;;;;;13.30;87.31;100533.78;5013725;28;20045;-80
2023/04/21 04:13:51;;;;;;;4.53;3.25;;;;;;;13.36;87.62;100525.47;4995849;28;20049;-78
2023/04/21 04:16:19;;;;;;;4.93;3.65;;;;;;;13.21;87.66;100529.28;5013911;28;20097;-79
2023/04/21 04:18:49;;;;;;;5.10;3.60;;;;;;;13.24;88.31;100539.69;4995665;28;20061;-79
2023/04/21 04:21:17;;;;;;;7.25;3.55;;;;;;;13.16;87.87;100541.97;5013727;28;20045;-78
2023/04/21 04:23:45;;;;;;;5.68;3.45;;;;;;;13.25;88.22;100541.31;5013585;28;20053;-78
2023/04/21 04:26:13;;;;;;;4.22;3.42;;;;;;;13.25;88.25;100544.06;5013615;28;20057;-78
2023/04/21 04:28:41;;;;;;;3.83;3.40;;;;;;;13.37;88.27;100549.06;4996333;28;20050;-78
2023/04/21 04:31:09;;;;;;;5.32;3.60;;;;;;;13.24;87.71;100545.97;5013615;28;20053;-79
2023/04/21 04:33:40;;;;;;;4.55;3.53;;;;;;;13.42;88.19;100549.00;4996103;28;20053;-79
2023/04/21 04:36:10;;;;;;;4.53;3.55;;;;;;;13.48;87.55;100549.78;5003361;28;20046;-78
2023/04/21 04:38:39;;;;;;;6.30;3.90;;;;;;;13.56;87.81;100555.41;4996247;28;20054;-78
2023/04/21 04:41:07;;;;;;;3.95;3.30;;;;;;;13.58;88.10;100560.56;5033211;28;20052;-78
2023/04/21 04:43:37;;;;;;;5.53;3.80;;;;;;;13.59;87.93;100562.19;5032920;28;20065;-78
2023/04/21 04:46:06;;;;;;;4.85;3.40;;;;;;;13.69;87.02;100562.03;5033120;28;20061;-78
2023/04/21 04:48:34;;;;;;;5.68;3.90;;;;;;;13.77;87.70;100568.78;5031872;28;20049;-79
2023/04/21 04:51:02;;;;;;;5.80;3.55;;;;;;;13.80;88.86;100567.38;5032881;28;20048;-79
2023/04/21 04:53:30;;;;;;;4.78;3.50;;;;;;;13.76;89.14;100578.16;5032991;28;20045;-77
2023/04/21 04:55:59;;;;;;;5.32;3.60;;;;;;;13.75;88.92;100570.19;5031123;28;20076;-77
2023/04/21 04:58:26;;;;;;;4.35;3.53;;;;;;;13.75;90.07;100575.69;5030954;28;20041;-77
2023/04/21 05:00:54;;;;;;;5.10;3.22;;;;;;;13.82;88.93;100576.94;5032506;28;20041;-77
2023/04/21 05:03:22;;;;;;;4.65;3.85;;;;;;;13.86;88.38;100577.16;5014843;28;20385;-76
2023/04/21 05:05:50;;;;;;;5.68;3.95;;;;;;;13.85;87.58;100578.28;5013302;28;20037;-76
2023/04/21 05:08:18;;;;;;;5.75;4.13;;;;;;;13.91;89.51;100573.50;5031768;28;20491;-77
2023/04/21 05:10:46;;;;;;;5.55;3.33;;;;;;;13.92;89.32;100586.94;5017757;28;20073;-77
2023/04/21 05:13:16;;;;;;;5.28;3.85;;;;;;;13.98;89.15;100588.50;5026948;28;20049;-77
2023/04/21 05:15:44;;;;;;;3.50;3.17;;;;;;;14.07;90.33;100590.53;5032489;28;20813;-77
2023/04/21 05:18:11;;;;;;;6.35;3.88;;;;;;;14.18;90.60;100599.44;5032549;28;20048;-77
2023/04/21 05:20:42;;;;;;;5.10;4.00;;;;;;;14.07;89.72;100598.78;5031974;28;20121;-76
2023/04/21 05:23:10;;;;;;;6.00;4.30;;;;;;;14.26;91.30;100595.16;5021128;28;20076;-76
2023/04/21 05:25:38;;;;;;;6.57;4.10;;;;;;;14.38;90.58;100603.72;5025561;28;20040;-77
2023/04/21 05:28:06;;;;;;;7.80;4.20;;;;;;;14.41;89.90;100603.09;5031989;28;20052;-77
2023/04/21 05:30:35;;;;;;;5.03;3.50;;;;;;;14.44;90.66;100598.94;5026188;28;20073;-76
2023/04/21 05:33:03;;;;;;;6.53;3.92;;;;;;;14.58;89.47;100615.47;5030190;28;20045;-76
2023/04/21 05:35:32;;;;;;;6.95;3.97;;;;;;;14.43;90.08;100606.38;5032117;28;20515;-76
2023/04/21 05:38:02;;;;;;;4.28;3.35;;;;;;;14.59;89.51;100606.06;5032009;28;20049;-76
2023/04/21 05:40:29;;;;;;;5.90;3.67;;;;;;;14.36;88.81;100611.47;5031976;28;20056;-76
2023/04/21 05:42:57;;;;;;;4.80;3.53;;;;;;;14.56;87.51;100620.47;5032365;28;20053;-91
2023/04/21 05:45:25;;;;;;;6.20;3.70;;;;;;;14.79;85.87;100613.13;4999880;28;20515;-93
2023/04/21 05:47:54;;;;;;;7.00;3.53;;;;;;;14.90;85.32;100621.97;4999099;28;20049;-93
2023/04/21 05:50:25;;;;;;;5.75;3.72;;;;;;;14.86;86.18;100624.53;4999366;28;20052;-93
2023/04/21 05:52:53;;;;;;;6.82;3.50;;;;;;;14.92;85.79;100630.78;4999489;28;20050;-92
2023/04/21 05:55:21;;;;;;;5.47;3.45;;;;;;;15.04;84.63;100632.97;4999734;28;20055;-93
2023/04/21 05:57:48;;;;;;;10.13;4.00;;;;;;;15.11;83.34;100624.31;4999106;28;20053;-93
2023/04/21 06:00:16;;;;;;;3.92;3.20;;;;;;;15.31;82.18;100634.06;4999855;28;20050;-93
2023/04/21 06:02:44;;;;;;;6.25;4.15;;;;;;;15.37;81.17;100632.81;5012040;28;20116;-92
2023/04/21 06:05:13;;;;;;;7.45;4.00;;;;;;;15.35;82.58;100628.72;4980587;28;20046;-93
2023/04/21 06:07:40;;;;;;;9.23;4.05;;;;;;;15.30;83.53;100629.69;5009142;28;20053;-94
2023/04/21 06:10:10;;;;;;;5.18;3.78;;;;;;;15.36;83.78;100630.34;4995053;28;20054;-96
2023/04/21 06:12:38;;;;;;;11.82;4.18;;;;;;;15.40;82.67;100631.38;5028632;23;20060;-96
2023/04/21 06:15:07;;;;;;;6.82;4.43;;;;;;;15.49;82.04;100631.44;4977890;28;20047;-94
2023/04/21 06:17:35;;;;;;;8.00;4.60;;;;;;;15.49;82.85;100628.69;4965810;28;20046;-91
2023/04/21 06:20:03;;;;;;;7.90;4.57;;;;;;;15.65;82.01;100640.16;4979249;28;20046;-91
2023/04/21 06:22:32;;;;;;;7.20;4.53;;;;;;;15.75;82.18;100639.94;4979339;28;20397;-87
2023/04/21 06:25:00;;;;;;;4.78;4.25;;;;;;;15.78;79.63;100627.44;5012650;28;20050;-91
2023/04/21 06:27:28;;;;;;;7.30;5.30;;;;;;;15.98;78.88;100617.84;4979148;28;20060;-90
2023/04/21 06:29:56;;;;;;;8.23;4.25;;;;;;;16.21;77.75;100626.09;4979164;28;20041;-88
2023/04/21 06:32:24;;;;;;;7.97;3.95;;;;;;;16.43;75.97;100627.16;4971506;28;20481;-92
2023/04/21 06:34:52;;;;;;;7.93;4.18;;;;;;;16.47;76.25;100628.97;4988795;28;20057;-91
2023/04/21 06:37:20;;;;;;;6.38;4.18;;;;;;;16.54;74.24;100628.50;4980078;28;20046;-90
2023/04/21 06:39:48;;;;;;;6.20;4.07;;;;;;;16.60;74.45;100618.13;4977488;28;20069;-77
2023/04/21 06:42:16;;;;;;;7.18;4.28;;;;;;;16.90;74.52;100618.34;5011496;28;20053;-75
2023/04/21 06:44:44;;;;;;;5.80;4.10;;;;;;;17.09;71.60;100634.69;5010969;28;20428;-76
2023/04/21 06:47:15;;;;;;;10.70;4.43;;;;;;;17.04;70.48;100624.59;4994241;28;20050;-75
2023/04/21 06:49:43;;;;;;;4.40;3.28;;;;;;;17.14;70.53;100634.53;4994197;28;20057;-75
2023/04/21 06:52:11;;;;;;;5.28;3.17;;;;;;;17.06;68.25;100638.13;4994167;28;20042;-75
2023/04/21 06:54:39;;;;;;;3.15;2.90;;;;;;;17.50;66.47;100640.09;5011512;28;20045;-75
2023/04/21 06:57:07;;;;;;;4.80;3.42;;;;;;;17.76;65.25;100653.09;4994043;28;20042;-75
2023/04/21 06:59:35;;;;;;;4.78;3.50;;;;;;;18.51;63.24;100650.00;4993842;28;20511;-75
2023/04/21 07:02:03;;;;;;;5.75;3.20;;;;;;;18.85;61.11;100649.31;5011428;28;20365;-76
2023/04/21 07:04:31;;;;;;;6.60;3.17;;;;;;;18.50;61.33;100647.53;5011361;28;20057;-75
2023/04/21 07:06:59;;;;;;;4.13;3.25;;;;;;;18.17;62.35;100648.16;4994118;28;20500;-76
2023/04/21 07:09:32;;;;;;;5.15;2.85;;;;;;;17.64;65.50;100646.25;5011238;28;20529;-75
2023/04/21 07:12:01;;;;;;;3.38;2.95;;;;;;;17.83;64.69;100658.94;4989003;28;20054;-75
2023/04/21 07:14:29;;;;;;;3.28;2.97;;;;;;;17.53;63.97;100650.50;4992059;28;20049;-75
2023/04/21 07:16:58;;;;;;;3.42;2.80;;;;;;;18.04;65.12;100639.66;4995219;28;20046;-75
2023/04/21 07:19:26;;;;;;;3.25;2.58;;;;;;;18.17;59.66;100637.88;4995063;28;20066;-76
2023/04/21 07:21:54;;;;;;;3.05;2.70;;;;;;;18.89;58.42;100659.44;4977724;28;20050;-75
2023/04/21 07:24:22;;;;;;;4.78;2.47;;;;;;;18.93;60.01;100657.59;4994835;28;20046;-76
2023/04/21 07:26:50;;;;;;;2.85;2.55;;;;;;;19.15;58.50;100660.44;4977394;28;20055;-75
2023/04/21 07:29:18;;;;;;;3.95;2.95;;;;;;;18.51;62.49;100652.75;4994872;28;20057;-75
2023/04/21 07:31:47;;;;;;;3.83;2.72;;;;;;;18.42;61.77;100663.06;4994793;28;20050;-75
2023/04/21 07:34:15;;;;;;;4.47;2.92;;;;;;;18.52;61.22;100668.25;4994903;28;20053;-75
2023/04/21 07:36:42;;;;;;;3.72;2.50;;;;;;;18.54;60.18;100677.03;4977484;28;20055;-75
2023/04/21 07:39:10;;;;;;;3.03;2.72;;;;;;;18.27;60.15;100668.00;4994777;28;20047;-75
2023/04/21 07:41:38;;;;;;;5.15;3.05;;;;;;;18.34;59.25;100675.78;4976544;28;20156;-76
2023/04/21 07:44:06;;;;;;;4.00;3.10;;;;;;;18.14;62.21;100666.25;4994416;28;20047;-76
2023/04/21 07:46:34;;;;;;;3.15;2.65;;;;;;;18.57;60.19;100666.44;4977017;28;20402;-75
2023/04/21 07:49:02;;;;;;;2.97;2.70;;;;;;;18.82;57.74;100672.19;4994509;28;20053;-76
2023/04/21 07:51:30;;;;;;;3.97;3.10;;;;;;;18.53;60.00;100680.94;4994565;28;20060;-76
2023/04/21 07:53:58;;;;;;;3.83;2.95;;;;;;;18.12;62.03;100671.28;4994467;28;20051;-75
2023/04/21 07:56:26;;;;;;;5.78;3.38;;;;;;;18.36;60.92;100679.06;4976715;28;20405;-76
2023/04/21 07:58:54;;;;;;;3.50;2.83;;;;;;;18.04;62.12;100675.66;4994527;28;20057;-76
2023/04/21 08:01:22;;;;;;;3.15;2.83;;;;;;;18.00;62.40;100666.41;4994370;28;20378;-76
2023/04/21 08:03:50;;;;;;;5.80;3.38;;;;;;;18.07;61.40;100690.84;4994100;28;20049;-77
2023/04/21 08:06:18;;;;;;;4.55;3.35;;;;;;;18.00;61.44;100683.03;4994228;28;20038;-76
2023/04/21 08:08:46;;;;;;;4.97;3.00;;;;;;;18.33;61.32;100692.75;4994092;28;20050;-76
2023/04/21 08:11:14;;;;;;;3.63;3.10;;;;;;;18.76;59.19;100689.00;4994129;28;20078;-76
2023/04/21 08:13:42;;;;;;;3.15;2.85;;;;;;;18.76;59.95;100689.00;5013303;28;20129;-76
2023/04/21 08:16:10;;;;;;;3.65;3.00;;;;;;;17.97;61.37;100689.19;5013705;28;20042;-76
2023/04/21 08:18:38;;;;;;;5.18;3.10;;;;;;;18.06;61.82;100694.75;5013586;28;20488;-76
2023/04/21 08:21:07;;;;;;;4.68;3.17;;;;;;;17.91;61.70;100688.56;5013455;28;20114;-76
2023/04/21 08:23:35;;;;;;;5.32;3.15;;;;;;;17.67;61.40;100698.19;5013448;28;20053;-77
2023/04/21 08:26:03;;;;;;;4.53;3.20;;;;;;;18.14;59.51;100702.25;5012997;28;20493;-76
2023/04/21 08:28:32;;;;;;;3.60;3.30;;;;;;;17.95;61.13;100699.81;5013311;28;20061;-76
2023/04/21 08:31:01;;;;;;;6.00;3.10;;;;;;;17.92;63.47;100695.72;5013366;28;20057;-76
2023/04/21 08:33:29;;;;;;;3.25;2.95;;;;;;;18.44;58.78;100709.84;5013313;28;20054;-76
2023/04/21 08:35:57;;;;;;;3.45;3.15;;;;;;;18.63;57.05;100701.13;5013377;28;20068;-76
2023/04/21 08:38:34;;;;;;;5.53;3.63;;;;;;;18.29;59.14;100708.41;5013326;28;20057;-76
2023/04/21 08:41:03;;;;;;;3.53;3.20;;;;;;;17.73;60.89;100709.91;5013167;28;20114;-76
2023/04/21 08:43:32;;;;;;;4.57;3.30;;;;;;;17.89;60.48;100707.44;5013086;28;20054;-76
2023/04/21 08:46:05;;;;;;;3.83;3.42;;;;;;;17.54;61.43;100707.47;5013073;28;20384;-76
2023/04/21 08:48:37;;;;;;;3.78;3.33;;;;;;;17.84;62.02;100702.91;5013060;28;20049;-77
2023/04/21 08:51:09;;;;;;;6.15;4.20;;;;;;;18.08;60.63;100703.56;5012838;28;20489;-76
2023/04/21 08:53:40;;;;;;;4.30;3.70;;;;;;;18.23;59.51;100716.09;5013091;28;20085;-76
2023/04/21 08:56:08;;;;;;;7.45;4.15;;;;;;;18.19;58.97;100718.69;5012972;28;20065;-76
2023/04/21 08:58:38;;;;;;;4.13;3.67;;;;;;;18.39;58.65;100719.94;5012820;28;20050;-76
2023/04/21 09:01:06;;;;;;;3.72;3.38;;;;;;;18.34;58.51;100716.53;5012739;28;20064;-77
2023/04/21 09:03:34;;;;;;;7.50;3.67;;;;;;;18.63;59.79;100724.09;5012688;28;20057;-77
2023/04/21 09:06:05;;;;;;;4.50;3.55;;;;;;;18.16;59.87;100704.69;4995295;28;20042;-77
2023/04/21 09:08:38;;;;;;;3.70;3.15;;;;;;;18.39;59.02;100722.72;5012755;28;20057;-76
2023/04/21 09:11:06;;;;;;;4.32;3.35;;;;;;;18.49;58.54;100718.78;5012602;28;20062;-77
2023/04/21 09:13:35;;;;;;;5.78;3.88;;;;;;;18.87;57.47;100716.38;5012423;28;20488;-77
2023/04/21 09:16:14;;;;;;;8.02;3.63;;;;;;;19.23;57.31;100711.44;5012509;28;20038;-77
2023/04/21 09:18:43;;;;;;;7.15;3.70;;;;;;;18.89;56.75;100702.97;5012484;28;20477;-77
2023/04/21 09:21:13;;;;;;;7.60;3.67;;;;;;;19.13;56.26;100713.47;5012480;28;20045;-78
2023/04/21 09:23:51;;;;;;;4.97;3.50;;;;;;;18.74;59.15;100702.41;5009724;28;20037;-77
2023/04/21 09:26:23;;;;;;;6.22;3.58;;;;;;;19.72;56.33;100719.28;5011678;28;20046;-77
2023/04/21 09:28:52;;;;;;;8.18;4.45;;;;;;;20.03;55.61;100725.59;5010847;28;20034;-77
2023/04/21 09:31:31;;;;;;;6.93;4.05;;;;;;;19.65;55.17;100705.13;5009002;28;20054;-77
2023/04/21 09:34:00;;;;;;;4.93;3.15;;;;;;;19.61;54.96;100714.13;5011016;28;20064;-77
2023/04/21 09:36:30;;;;;;;4.75;3.67;;;;;;;19.83;57.23;100719.66;4994178;28;20068;-77
2023/04/21 09:39:00;;;;;;;4.13;3.28;;;;;;;19.51;55.69;100711.78;5005676;28;20050;-78
2023/04/21 09:41:32;;;;;;;5.60;3.40;;;;;;;19.90;55.73;100708.00;5010950;28;20065;-76
2023/04/21 09:44:02;;;;;;;4.78;3.42;;;;;;;20.19;53.50;100709.06;5010372;28;20042;-77
2023/04/21 09:46:33;;;;;;;4.75;3.03;;;;;;;20.17;52.67;100709.41;5010900;28;20460;-77
2023/04/21 09:49:03;;;;;;;6.28;3.33;;;;;;;19.49;56.75;100705.72;5002357;28;20042;-77
2023/04/21 09:51:32;;;;;;;3.40;3.10;;;;;;;19.71;54.97;100715.66;5004787;28;20046;-77
2023/04/21 09:54:11;;;;;;;4.97;3.40;;;;;;;18.69;57.26;100702.56;5004124;28;20053;-77
2023/04/21 09:57:01;;;;;;;4.03;3.30;;;;;;;19.08;57.42;100705.34;4999093;28;20042;-77
2023/04/21 09:59:34;;;;;;;3.83;3.08;;;;;;;18.80;56.33;100716.88;4997619;28;20049;-77
2023/04/21 10:02:07;;;;;;;5.03;3.28;;;;;;;18.77;59.71;100707.25;4992381;28;20492;-77
2023/04/21 10:04:36;;;;;;;3.72;3.20;;;;;;;19.17;56.41;100708.06;5010071;28;20050;-77
2023/04/21 10:07:05;;;;;;;4.30;3.28;;;;;;;19.50;58.28;100707.34;5010033;28;20405;-77
2023/04/21 10:09:44;;;;;;;3.22;2.92;;;;;;;19.11;56.59;100693.56;4992531;28;20041;-77
2023/04/21 10:12:14;;;;;;;4.40;3.35;;;;;;;19.57;56.87;100693.75;5010873;28;20050;-77
2023/04/21 10:14:42;;;;;;;3.35;3.05;;;;;;;20.35;53.77;100693.38;4993578;28;20048;-77
2023/04/21 10:17:10;;;;;;;4.00;3.50;;;;;;;19.73;56.02;100702.28;5012031;28;20050;-78
2023/04/21 10:19:48;;;;;;;5.22;2.88;;;;;;;19.78;54.35;100681.81;5010448;28;20607;-78
2023/04/21 10:22:29;;;;;;;3.20;2.90;;;;;;;20.51;55.42;100689.91;5011616;28;20057;-77
2023/04/21 10:24:59;;;;;;;3.15;2.85;;;;;;;20.07;54.79;100694.00;5011084;28;20480;-77
2023/04/21 10:27:34;;;;;;;3.17;2.88;;;;;;;20.62;51.82;100679.16;5010565;28;20042;-76
2023/04/21 10:30:24;;;;;;;3.33;3.05;;;;;;;20.60;51.89;100698.97;5010613;28;20049;-76
2023/04/21 10:33:03;;;;;;;4.07;2.90;;;;;;;20.21;51.48;100684.53;5010903;28;20049;-76
2023/04/21 10:35:57;;;;;;;3.92;3.15;;;;;;;20.69;52.93;100684.97;5010987;28;20038;-78
2023/04/21 10:38:42;;;;;;;3.78;3.10;;;;;;;21.00;52.64;100678.03;5011077;28;20050;-77
2023/04/21 10:41:27;;;;;;;5.85;2.78;;;;;;;20.76;49.08;100699.09;5010100;28;20046;-77
2023/04/21 10:43:59;;;;;;;4.80;3.13;;;;;;;20.37;50.02;100696.63;5010897;28;20042;-77
2023/04/21 10:46:48;;;;;;;3.78;3.00;;;;;;;20.49;49.70;100690.25;5011271;28;20057;-76
2023/04/21 10:49:23;;;;;;;4.18;2.85;;;;;;;20.80;49.85;100679.75;5010760;28;20053;-77
2023/04/21 10:52:01;;;;;;;3.58;2.75;;;;;;;21.04;50.22;100684.53;5013550;28;20061;-79
2023/04/21 10:54:48;;;;;;;4.00;2.50;;;;;;;21.11;49.22;100688.69;5014793;28;20045;-79
2023/04/21 10:57:19;;;;;;;4.30;2.67;;;;;;;21.21;50.81;100689.00;5014978;28;20053;-79
2023/04/21 10:59:50;;;;;;;3.10;2.80;;;;;;;21.22;49.87;100678.69;5015515;28;20042;-80
2023/04/21 11:02:19;;;;;;;3.60;3.10;;;;;;;20.74;49.81;100668.06;4997973;28;20064;-79
2023/04/21 11:04:51;;;;;;;5.07;3.22;;;;;;;21.13;50.49;100678.00;5014962;28;20046;-79
2023/04/21 11:07:23;;;;;;;3.00;2.67;;;;;;;20.90;53.89;100673.75;5015340;28;20041;-79
2023/04/21 11:09:58;;;;;;;4.43;3.28;;;;;;;20.59;51.45;100677.06;5014460;28;20053;-79
2023/04/21 11:12:29;;;;;;;3.90;2.90;;;;;;;20.53;50.64;100682.06;5014687;28;20050;-78
2023/04/21 11:14:58;;;;;;;3.22;2.78;;;;;;;20.94;50.22;100671.06;5014506;28;20155;-79
2023/04/21 11:17:26;;;;;;;3.13;2.80;;;;;;;21.16;48.00;100677.31;5014765;28;20038;-81
2023/04/21 11:19:55;;;;;;;3.13;2.47;;;;;;;21.25;46.92;100677.19;5014811;28;20046;-81
2023/04/21 11:22:25;;;;;;;2.97;2.63;;;;;;;21.51;48.52;100673.19;5015014;28;20054;-81
2023/04/21 11:24:54;;;;;;;4.20;2.60;;;;;;;21.32;48.11;100674.63;5013233;28;20057;-80
2023/04/21 11:27:25;;;;;;;4.25;2.95;;;;;;;21.57;47.19;100668.97;5011784;28;20057;-81
2023/04/21 11:29:53;;;;;;;3.90;2.47;;;;;;;21.03;47.59;100674.56;5012859;28;20493;-81
2023/04/21 11:32:21;;;;;;;4.93;2.78;;;;;;;20.84;49.68;100661.22;5013337;28;20049;-81
2023/04/21 11:34:49;;;;;;;4.47;3.10;;;;;;;21.09;49.36;100669.56;5012835;28;20680;-81